TimeMDT,TemperatureF,Dew PointF,Humidity,Sea Level PressureIn,VisibilityMPH,Wind Direction,Wind SpeedMPH,Gust SpeedMPH,PrecipitationIn,Events,Conditions,WindDirDegrees,DateUTC
12:53 AM,73.9,54.0,50,29.91,10.0,South,9.2,-,N/A,,Clear,190,2013-08-28 06:53:00
1:53 AM,71.1,53.1,53,29.91,10.0,SW,8.1,-,N/A,,Clear,220,2013-08-28 07:53:00
2:53 AM,70.0,53.1,55,29.90,10.0,SSW,6.9,-,N/A,,Clear,200,2013-08-28 08:53:00
3:53 AM,73.0,54.0,51,29.89,10.0,SSW,10.4,-,N/A,,Clear,210,2013-08-28 09:53:00
4:53 AM,71.1,55.0,57,29.91,10.0,SW,9.2,-,N/A,,Clear,230,2013-08-28 10:53:00
5:53 AM,70.0,55.9,61,29.92,10.0,SW,6.9,-,N/A,,Clear,220,2013-08-28 11:53:00
6:53 AM,70.0,57.0,63,29.94,10.0,SSW,5.8,-,N/A,,Clear,200,2013-08-28 12:53:00
7:53 AM,73.9,59.0,59,29.95,10.0,SW,15.0,-,N/A,,Clear,220,2013-08-28 13:53:00
8:53 AM,79.0,59.0,50,29.96,10.0,SW,12.7,-,N/A,,Clear,230,2013-08-28 14:53:00
9:53 AM,84.0,59.0,43,29.96,10.0,SSW,19.6,-,N/A,,Clear,210,2013-08-28 15:53:00
10:53 AM,87.1,57.0,36,29.95,10.0,SW,15.0,25.3,N/A,,Clear,220,2013-08-28 16:53:00
11:53 AM,89.1,55.9,32,29.94,10.0,SW,16.1,25.3,N/A,,Clear,220,2013-08-28 17:53:00
12:53 PM,89.1,53.1,29,29.93,10.0,SW,11.5,21.9,N/A,,Clear,220,2013-08-28 18:53:00
1:53 PM,91.9,52.0,26,29.92,10.0,SW,15.0,24.2,N/A,,Partly Cloudy,230,2013-08-28 19:53:00
2:53 PM,90.0,52.0,27,29.91,10.0,SSW,12.7,-,N/A,,Clear,210,2013-08-28 20:53:00
3:53 PM,91.0,52.0,26,29.88,10.0,SSW,9.2,-,N/A,,Clear,210,2013-08-28 21:53:00
4:53 PM,93.0,52.0,25,29.86,10.0,SSW,9.2,-,N/A,,Mostly Cloudy,200,2013-08-28 22:53:00
5:53 PM,91.0,51.1,25,29.87,10.0,South,15.0,-,N/A,,Partly Cloudy,190,2013-08-28 23:53:00
6:53 PM,88.0,52.0,29,29.89,10.0,South,12.7,-,N/A,,Clear,190,2013-08-29 00:53:00
7:53 PM,84.0,54.0,35,29.91,10.0,South,9.2,-,N/A,,Clear,180,2013-08-29 01:53:00
8:53 PM,82.9,53.1,36,29.91,10.0,South,10.4,-,N/A,,Clear,190,2013-08-29 02:53:00
9:53 PM,81.0,55.0,41,29.93,10.0,South,13.8,-,N/A,,Clear,190,2013-08-29 03:53:00
10:53 PM,79.0,55.9,45,29.94,10.0,South,11.5,-,N/A,,Clear,190,2013-08-29 04:53:00
11:53 PM,78.1,55.9,46,29.94,10.0,SSW,11.5,-,N/A,,Clear,200,2013-08-29 05:53:00